sensor_id;sensor_type;location;lat;lon;timestamp;P1;durP1;ratioP1;P2;durP2;ratioP2
60464;SDS011;46314;52.392;9.758;2023-06-10T00:00:09;9.93;;;4.30;;
60464;SDS011;46314;52.392;9.758;2023-06-10T00:02:36;6.95;;;4.00;;
60464;SDS011;46314;52.392;9.758;2023-06-10T00:05:03;5.78;;;3.85;;
60464;SDS011;46314;52.392;9.758;2023-06-10T00:07:30;7.45;;;4.65;;
60464;SDS011;46314;52.392;9.758;2023-06-10T00:09:56;5.50;;;3.97;;
60464;SDS011;46314;52.392;9.758;2023-06-10T00:12:23;6.05;;;4.28;;
60464;SDS011;46314;52.392;9.758;2023-06-10T00:14:49;7.72;;;3.92;;
60464;SDS011;46314;52.392;9.758;2023-06-10T00:17:17;5.45;;;4.22;;
60464;SDS011;46314;52.392;9.758;2023-06-10T00:19:43;6.05;;;4.18;;
60464;SDS011;46314;52.392;9.758;2023-06-10T00:22:10;10.32;;;4.68;;
60464;SDS011;46314;52.392;9.758;2023-06-10T00:24:37;6.85;;;4.18;;
60464;SDS011;46314;52.392;9.758;2023-06-10T00:27:04;8.20;;;3.97;;
60464;SDS011;46314;52.392;9.758;2023-06-10T00:29:31;8.50;;;4.57;;
60464;SDS011;46314;52.392;9.758;2023-06-10T00:31:57;6.07;;;3.75;;
60464;SDS011;46314;52.392;9.758;2023-06-10T00:34:25;7.13;;;4.00;;
60464;SDS011;46314;52.392;9.758;2023-06-10T00:36:52;11.30;;;4.28;;
60464;SDS011;46314;52.392;9.758;2023-06-10T00:39:19;5.55;;;4.25;;
60464;SDS011;46314;52.392;9.758;2023-06-10T00:41:45;7.43;;;4.75;;
60464;SDS011;46314;52.392;9.758;2023-06-10T00:44:12;6.82;;;4.35;;
60464;SDS011;46314;52.392;9.758;2023-06-10T00:46:38;7.22;;;5.38;;
60464;SDS011;46314;52.392;9.758;2023-06-10T00:49:05;8.18;;;4.35;;
60464;SDS011;46314;52.392;9.758;2023-06-10T00:51:33;5.93;;;4.25;;
60464;SDS011;46314;52.392;9.758;2023-06-10T00:54:00;8.02;;;4.80;;
60464;SDS011;46314;52.392;9.758;2023-06-10T00:56:27;6.45;;;4.03;;
60464;SDS011;46314;52.392;9.758;2023-06-10T00:58:53;7.82;;;4.80;;
60464;SDS011;46314;52.392;9.758;2023-06-10T01:01:20;5.63;;;4.32;;
60464;SDS011;46314;52.392;9.758;2023-06-10T01:03:46;6.78;;;5.43;;
60464;SDS011;46314;52.392;9.758;2023-06-10T01:06:14;7.20;;;4.40;;
60464;SDS011;46314;52.392;9.758;2023-06-10T01:08:53;5.95;;;4.65;;
60464;SDS011;46314;52.392;9.758;2023-06-10T01:11:23;5.85;;;4.55;;
60464;SDS011;46314;52.392;9.758;2023-06-10T01:13:54;7.10;;;5.22;;
60464;SDS011;46314;52.392;9.758;2023-06-10T01:16:22;8.20;;;4.93;;
60464;SDS011;46314;52.392;9.758;2023-06-10T01:18:49;7.38;;;4.80;;
60464;SDS011;46314;52.392;9.758;2023-06-10T01:21:19;8.10;;;5.10;;
60464;SDS011;46314;52.392;9.758;2023-06-10T01:23:46;7.53;;;5.40;;
60464;SDS011;46314;52.392;9.758;2023-06-10T01:26:13;8.85;;;5.35;;
60464;SDS011;46314;52.392;9.758;2023-06-10T01:28:43;10.38;;;5.28;;
60464;SDS011;46314;52.392;9.758;2023-06-10T01:31:15;8.00;;;5.05;;
60464;SDS011;46314;52.392;9.758;2023-06-10T01:33:45;7.88;;;5.30;;
60464;SDS011;46314;52.392;9.758;2023-06-10T01:36:15;11.32;;;6.40;;
60464;SDS011;46314;52.392;9.758;2023-06-10T01:38:45;7.85;;;5.40;;
60464;SDS011;46314;52.392;9.758;2023-06-10T01:41:13;6.22;;;4.90;;
60464;SDS011;46314;52.392;9.758;2023-06-10T01:43:42;9.25;;;5.30;;
60464;SDS011;46314;52.392;9.758;2023-06-10T01:46:10;10.50;;;6.20;;
60464;SDS011;46314;52.392;9.758;2023-06-10T01:48:36;9.95;;;5.55;;
60464;SDS011;46314;52.392;9.758;2023-06-10T01:51:03;8.77;;;5.25;;
60464;SDS011;46314;52.392;9.758;2023-06-10T01:53:30;9.85;;;5.30;;
60464;SDS011;46314;52.392;9.758;2023-06-10T01:55:58;9.43;;;5.07;;
60464;SDS011;46314;52.392;9.758;2023-06-10T01:58:24;10.10;;;5.70;;
60464;SDS011;46314;52.392;9.758;2023-06-10T02:00:51;8.10;;;5.07;;
60464;SDS011;46314;52.392;9.758;2023-06-10T02:03:17;8.57;;;5.90;;
60464;SDS011;46314;52.392;9.758;2023-06-10T02:05:44;9.45;;;6.13;;
60464;SDS011;46314;52.392;9.758;2023-06-10T02:08:11;7.72;;;4.82;;
60464;SDS011;46314;52.392;9.758;2023-06-10T02:10:37;8.32;;;5.63;;
60464;SDS011;46314;52.392;9.758;2023-06-10T02:13:05;10.77;;;5.65;;
60464;SDS011;46314;52.392;9.758;2023-06-10T02:15:31;12.43;;;5.88;;
60464;SDS011;46314;52.392;9.758;2023-06-10T02:17:58;9.55;;;5.43;;
60464;SDS011;46314;52.392;9.758;2023-06-10T02:20:25;9.98;;;5.80;;
60464;SDS011;46314;52.392;9.758;2023-06-10T02:22:51;10.68;;;5.07;;
60464;SDS011;46314;52.392;9.758;2023-06-10T02:25:18;9.88;;;5.50;;
60464;SDS011;46314;52.392;9.758;2023-06-10T02:27:44;11.57;;;5.93;;
60464;SDS011;46314;52.392;9.758;2023-06-10T02:30:13;9.88;;;6.13;;
60464;SDS011;46314;52.392;9.758;2023-06-10T02:32:39;10.73;;;6.13;;
60464;SDS011;46314;52.392;9.758;2023-06-10T02:35:06;6.45;;;5.20;;
60464;SDS011;46314;52.392;9.758;2023-06-10T02:37:33;10.32;;;6.45;;
60464;SDS011;46314;52.392;9.758;2023-06-10T02:39:59;10.05;;;6.65;;
60464;SDS011;46314;52.392;9.758;2023-06-10T02:42:26;9.43;;;5.80;;
60464;SDS011;46314;52.392;9.758;2023-06-10T02:44:52;10.05;;;6.32;;
60464;SDS011;46314;52.392;9.758;2023-06-10T02:47:20;12.45;;;6.65;;
60464;SDS011;46314;52.392;9.758;2023-06-10T02:49:46;10.75;;;6.47;;
60464;SDS011;46314;52.392;9.758;2023-06-10T02:52:13;10.40;;;7.00;;
60464;SDS011;46314;52.392;9.758;2023-06-10T02:54:39;13.98;;;6.35;;
60464;SDS011;46314;52.392;9.758;2023-06-10T02:57:06;9.00;;;5.57;;
60464;SDS011;46314;52.392;9.758;2023-06-10T02:59:32;15.45;;;7.00;;
60464;SDS011;46314;52.392;9.758;2023-06-10T03:01:59;10.93;;;7.00;;
60464;SDS011;46314;52.392;9.758;2023-06-10T03:04:27;12.90;;;7.22;;
60464;SDS011;46314;52.392;9.758;2023-06-10T03:06:53;9.85;;;6.22;;
60464;SDS011;46314;52.392;9.758;2023-06-10T03:09:20;13.43;;;7.20;;
60464;SDS011;46314;52.392;9.758;2023-06-10T03:11:47;11.18;;;6.95;;
60464;SDS011;46314;52.392;9.758;2023-06-10T03:14:13;12.23;;;7.57;;
60464;SDS011;46314;52.392;9.758;2023-06-10T03:16:39;12.07;;;6.95;;
60464;SDS011;46314;52.392;9.758;2023-06-10T03:19:06;10.27;;;6.75;;
60464;SDS011;46314;52.392;9.758;2023-06-10T03:21:34;13.40;;;7.68;;
60464;SDS011;46314;52.392;9.758;2023-06-10T03:24:00;10.88;;;6.93;;
60464;SDS011;46314;52.392;9.758;2023-06-10T03:26:27;10.60;;;6.13;;
60464;SDS011;46314;52.392;9.758;2023-06-10T03:28:53;10.93;;;7.15;;
60464;SDS011;46314;52.392;9.758;2023-06-10T03:31:20;12.07;;;7.28;;
60464;SDS011;46314;52.392;9.758;2023-06-10T03:33:46;13.15;;;7.32;;
60464;SDS011;46314;52.392;9.758;2023-06-10T03:36:13;9.57;;;6.82;;
60464;SDS011;46314;52.392;9.758;2023-06-10T03:38:40;9.25;;;6.50;;
60464;SDS011;46314;52.392;9.758;2023-06-10T03:41:07;13.93;;;7.40;;
60464;SDS011;46314;52.392;9.758;2023-06-10T03:43:33;10.18;;;7.07;;
60464;SDS011;46314;52.392;9.758;2023-06-10T03:46:00;10.48;;;7.38;;
60464;SDS011;46314;52.392;9.758;2023-06-10T03:48:26;17.85;;;7.82;;
60464;SDS011;46314;52.392;9.758;2023-06-10T03:50:53;13.65;;;6.85;;
60464;SDS011;46314;52.392;9.758;2023-06-10T03:53:19;14.13;;;7.05;;
60464;SDS011;46314;52.392;9.758;2023-06-10T03:55:47;12.02;;;7.75;;
60464;SDS011;46314;52.392;9.758;2023-06-10T03:58:14;14.45;;;8.00;;
60464;SDS011;46314;52.392;9.758;2023-06-10T04:00:40;11.57;;;7.70;;
60464;SDS011;46314;52.392;9.758;2023-06-10T04:03:07;15.35;;;8.18;;
60464;SDS011;46314;52.392;9.758;2023-06-10T04:05:34;13.68;;;8.07;;
60464;SDS011;46314;52.392;9.758;2023-06-10T04:08:01;14.05;;;7.97;;
60464;SDS011;46314;52.392;9.758;2023-06-10T04:10:27;11.80;;;8.00;;
60464;SDS011;46314;52.392;9.758;2023-06-10T04:12:55;11.93;;;6.82;;
60464;SDS011;46314;52.392;9.758;2023-06-10T04:15:22;13.55;;;7.85;;
60464;SDS011;46314;52.392;9.758;2023-06-10T04:17:50;11.80;;;8.23;;
60464;SDS011;46314;52.392;9.758;2023-06-10T04:20:17;14.70;;;8.43;;
60464;SDS011;46314;52.392;9.758;2023-06-10T04:22:43;11.27;;;8.25;;
60464;SDS011;46314;52.392;9.758;2023-06-10T04:25:10;12.98;;;8.10;;
60464;SDS011;46314;52.392;9.758;2023-06-10T04:27:37;14.60;;;8.93;;
60464;SDS011;46314;52.392;9.758;2023-06-10T04:30:06;11.00;;;8.15;;
60464;SDS011;46314;52.392;9.758;2023-06-10T04:32:33;13.50;;;8.90;;
60464;SDS011;46314;52.392;9.758;2023-06-10T04:34:59;16.67;;;8.80;;
60464;SDS011;46314;52.392;9.758;2023-06-10T04:37:26;13.88;;;9.65;;
60464;SDS011;46314;52.392;9.758;2023-06-10T04:39:52;13.45;;;9.68;;
60464;SDS011;46314;52.392;9.758;2023-06-10T04:42:19;14.02;;;10.27;;
60464;SDS011;46314;52.392;9.758;2023-06-10T04:44:45;12.93;;;9.50;;
60464;SDS011;46314;52.392;9.758;2023-06-10T04:47:13;12.85;;;9.07;;
60464;SDS011;46314;52.392;9.758;2023-06-10T04:49:40;12.98;;;10.40;;
60464;SDS011;46314;52.392;9.758;2023-06-10T04:52:07;12.20;;;9.27;;
60464;SDS011;46314;52.392;9.758;2023-06-10T04:54:33;13.48;;;9.65;;
60464;SDS011;46314;52.392;9.758;2023-06-10T04:57:00;11.95;;;8.15;;
60464;SDS011;46314;52.392;9.758;2023-06-10T04:59:26;13.38;;;8.65;;
60464;SDS011;46314;52.392;9.758;2023-06-10T05:01:53;13.55;;;8.80;;
60464;SDS011;46314;52.392;9.758;2023-06-10T05:04:21;14.55;;;8.43;;
60464;SDS011;46314;52.392;9.758;2023-06-10T05:06:47;11.68;;;8.70;;
60464;SDS011;46314;52.392;9.758;2023-06-10T05:09:14;14.02;;;8.68;;
60464;SDS011;46314;52.392;9.758;2023-06-10T05:11:40;12.20;;;8.73;;
60464;SDS011;46314;52.392;9.758;2023-06-10T05:14:06;12.38;;;8.45;;
60464;SDS011;46314;52.392;9.758;2023-06-10T05:16:33;12.00;;;7.90;;
60464;SDS011;46314;52.392;9.758;2023-06-10T05:18:59;13.88;;;9.10;;
60464;SDS011;46314;52.392;9.758;2023-06-10T05:21:27;10.65;;;8.50;;
60464;SDS011;46314;52.392;9.758;2023-06-10T05:23:54;14.75;;;8.63;;
60464;SDS011;46314;52.392;9.758;2023-06-10T05:26:20;11.27;;;8.60;;
60464;SDS011;46314;52.392;9.758;2023-06-10T05:28:47;14.77;;;9.65;;
60464;SDS011;46314;52.392;9.758;2023-06-10T05:31:14;16.10;;;9.50;;
60464;SDS011;46314;52.392;9.758;2023-06-10T05:33:40;13.05;;;8.52;;
60464;SDS011;46314;52.392;9.758;2023-06-10T05:36:07;11.75;;;7.97;;
60464;SDS011;46314;52.392;9.758;2023-06-10T05:38:35;11.30;;;7.57;;
60464;SDS011;46314;52.392;9.758;2023-06-10T05:41:01;13.52;;;8.00;;
60464;SDS011;46314;52.392;9.758;2023-06-10T05:43:27;11.07;;;7.65;;
60464;SDS011;46314;52.392;9.758;2023-06-10T05:45:54;12.60;;;7.85;;
60464;SDS011;46314;52.392;9.758;2023-06-10T05:48:20;9.50;;;7.10;;
60464;SDS011;46314;52.392;9.758;2023-06-10T05:50:47;10.98;;;7.28;;
60464;SDS011;46314;52.392;9.758;2023-06-10T05:53:13;9.20;;;7.03;;
60464;SDS011;46314;52.392;9.758;2023-06-10T05:55:41;8.68;;;7.15;;
60464;SDS011;46314;52.392;9.758;2023-06-10T05:58:08;8.85;;;6.97;;
60464;SDS011;46314;52.392;9.758;2023-06-10T06:00:35;8.95;;;7.70;;
60464;SDS011;46314;52.392;9.758;2023-06-10T06:03:03;11.07;;;7.35;;
60464;SDS011;46314;52.392;9.758;2023-06-10T06:05:31;8.57;;;6.38;;
60464;SDS011;46314;52.392;9.758;2023-06-10T06:07:58;11.85;;;6.78;;
60464;SDS011;46314;52.392;9.758;2023-06-10T06:10:24;10.93;;;6.85;;
60464;SDS011;46314;52.392;9.758;2023-06-10T06:12:52;10.52;;;7.18;;
60464;SDS011;46314;52.392;9.758;2023-06-10T06:15:19;10.00;;;7.30;;
60464;SDS011;46314;52.392;9.758;2023-06-10T06:17:46;13.20;;;7.20;;
60464;SDS011;46314;52.392;9.758;2023-06-10T06:20:13;8.05;;;6.40;;
60464;SDS011;46314;52.392;9.758;2023-06-10T06:22:40;10.15;;;6.28;;
60464;SDS011;46314;52.392;9.758;2023-06-10T06:25:07;10.07;;;6.40;;
60464;SDS011;46314;52.392;9.758;2023-06-10T06:27:34;8.30;;;6.10;;
60464;SDS011;46314;52.392;9.758;2023-06-10T06:30:02;7.85;;;6.20;;
60464;SDS011;46314;52.392;9.758;2023-06-10T06:32:30;6.95;;;6.25;;
60464;SDS011;46314;52.392;9.758;2023-06-10T06:34:57;8.45;;;6.65;;
60464;SDS011;46314;52.392;9.758;2023-06-10T06:37:24;10.23;;;6.95;;
60464;SDS011;46314;52.392;9.758;2023-06-10T06:39:51;8.05;;;6.97;;
60464;SDS011;46314;52.392;9.758;2023-06-10T06:42:18;6.90;;;6.20;;
60464;SDS011;46314;52.392;9.758;2023-06-10T06:44:45;9.82;;;6.63;;
60464;SDS011;46314;52.392;9.758;2023-06-10T06:47:13;9.05;;;6.55;;
60464;SDS011;46314;52.392;9.758;2023-06-10T06:49:40;10.50;;;7.38;;
60464;SDS011;46314;52.392;9.758;2023-06-10T06:52:06;9.52;;;6.38;;
60464;SDS011;46314;52.392;9.758;2023-06-10T06:54:33;8.02;;;6.88;;
60464;SDS011;46314;52.392;9.758;2023-06-10T06:57:00;10.60;;;7.18;;
60464;SDS011;46314;52.392;9.758;2023-06-10T06:59:26;8.27;;;6.03;;
60464;SDS011;46314;52.392;9.758;2023-06-10T07:01:53;10.10;;;6.55;;
60464;SDS011;46314;52.392;9.758;2023-06-10T07:04:22;10.50;;;7.07;;
60464;SDS011;46314;52.392;9.758;2023-06-10T07:06:51;9.55;;;6.57;;
60464;SDS011;46314;52.392;9.758;2023-06-10T07:09:17;9.93;;;6.32;;
60464;SDS011;46314;52.392;9.758;2023-06-10T07:11:44;12.15;;;7.18;;
60464;SDS011;46314;52.392;9.758;2023-06-10T07:14:10;12.07;;;7.63;;
60464;SDS011;46314;52.392;9.758;2023-06-10T07:16:37;9.00;;;7.47;;
60464;SDS011;46314;52.392;9.758;2023-06-10T07:19:03;10.65;;;7.10;;
60464;SDS011;46314;52.392;9.758;2023-06-10T07:21:33;12.18;;;7.30;;
60464;SDS011;46314;52.392;9.758;2023-06-10T07:23:59;9.65;;;6.63;;
60464;SDS011;46314;52.392;9.758;2023-06-10T07:26:26;9.52;;;6.30;;
60464;SDS011;46314;52.392;9.758;2023-06-10T07:28:52;9.48;;;7.53;;
60464;SDS011;46314;52.392;9.758;2023-06-10T07:31:19;10.25;;;6.65;;
60464;SDS011;46314;52.392;9.758;2023-06-10T07:33:46;9.68;;;6.75;;
60464;SDS011;46314;52.392;9.758;2023-06-10T07:36:13;9.88;;;6.72;;
60464;SDS011;46314;52.392;9.758;2023-06-10T07:38:40;11.27;;;7.25;;
60464;SDS011;46314;52.392;9.758;2023-06-10T07:41:07;17.00;;;7.40;;
60464;SDS011;46314;52.392;9.758;2023-06-10T07:43:33;12.23;;;7.32;;
60464;SDS011;46314;52.392;9.758;2023-06-10T07:46:00;9.82;;;6.97;;
60464;SDS011;46314;52.392;9.758;2023-06-10T07:48:26;9.23;;;6.43;;
60464;SDS011;46314;52.392;9.758;2023-06-10T07:50:53;9.48;;;7.35;;
60464;SDS011;46314;52.392;9.758;2023-06-10T07:53:19;11.77;;;7.10;;
60464;SDS011;46314;52.392;9.758;2023-06-10T07:55:47;9.77;;;6.65;;
60464;SDS011;46314;52.392;9.758;2023-06-10T07:58:14;10.40;;;6.90;;
60464;SDS011;46314;52.392;9.758;2023-06-10T08:00:40;9.55;;;6.65;;
60464;SDS011;46314;52.392;9.758;2023-06-10T08:03:07;10.60;;;6.38;;
60464;SDS011;46314;52.392;9.758;2023-06-10T08:05:33;10.25;;;7.57;;
60464;SDS011;46314;52.392;9.758;2023-06-10T08:08:00;11.55;;;6.75;;
60464;SDS011;46314;52.392;9.758;2023-06-10T08:10:29;12.80;;;6.38;;
60464;SDS011;46314;52.392;9.758;2023-06-10T08:12:57;14.30;;;6.60;;
60464;SDS011;46314;52.392;9.758;2023-06-10T08:15:24;12.27;;;6.45;;
60464;SDS011;46314;52.392;9.758;2023-06-10T08:17:51;12.77;;;6.70;;
60464;SDS011;46314;52.392;9.758;2023-06-10T08:20:18;9.52;;;7.13;;
60464;SDS011;46314;52.392;9.758;2023-06-10T08:22:44;8.50;;;6.88;;
60464;SDS011;46314;52.392;9.758;2023-06-10T08:25:10;10.88;;;7.07;;
60464;SDS011;46314;52.392;9.758;2023-06-10T08:27:37;9.90;;;6.78;;
60464;SDS011;46314;52.392;9.758;2023-06-10T08:30:06;9.18;;;6.35;;
60464;SDS011;46314;52.392;9.758;2023-06-10T08:32:33;9.50;;;6.28;;
60464;SDS011;46314;52.392;9.758;2023-06-10T08:34:59;9.63;;;6.88;;
60464;SDS011;46314;52.392;9.758;2023-06-10T08:37:26;7.85;;;6.03;;
60464;SDS011;46314;52.392;9.758;2023-06-10T08:39:52;9.73;;;6.05;;
60464;SDS011;46314;52.392;9.758;2023-06-10T08:42:21;9.85;;;6.55;;
60464;SDS011;46314;52.392;9.758;2023-06-10T08:44:49;10.60;;;6.78;;
60464;SDS011;46314;52.392;9.758;2023-06-10T08:47:22;7.82;;;5.78;;
60464;SDS011;46314;52.392;9.758;2023-06-10T08:49:49;10.88;;;5.82;;
60464;SDS011;46314;52.392;9.758;2023-06-10T08:52:17;9.25;;;6.45;;
60464;SDS011;46314;52.392;9.758;2023-06-10T08:54:46;11.13;;;5.60;;
60464;SDS011;46314;52.392;9.758;2023-06-10T08:57:15;11.15;;;5.95;;
60464;SDS011;46314;52.392;9.758;2023-06-10T08:59:44;8.45;;;5.88;;
60464;SDS011;46314;52.392;9.758;2023-06-10T09:02:11;9.85;;;6.30;;
60464;SDS011;46314;52.392;9.758;2023-06-10T09:04:41;7.35;;;5.88;;
60464;SDS011;46314;52.392;9.758;2023-06-10T09:07:09;9.95;;;5.90;;
60464;SDS011;46314;52.392;9.758;2023-06-10T09:09:37;8.48;;;6.03;;
60464;SDS011;46314;52.392;9.758;2023-06-10T09:12:04;7.07;;;5.63;;
60464;SDS011;46314;52.392;9.758;2023-06-10T09:14:31;9.07;;;5.45;;
60464;SDS011;46314;52.392;9.758;2023-06-10T09:16:57;8.10;;;5.75;;
60464;SDS011;46314;52.392;9.758;2023-06-10T09:19:24;8.75;;;5.60;;
60464;SDS011;46314;52.392;9.758;2023-06-10T09:21:54;7.45;;;5.68;;
60464;SDS011;46314;52.392;9.758;2023-06-10T09:24:21;8.90;;;5.80;;
60464;SDS011;46314;52.392;9.758;2023-06-10T09:26:48;8.15;;;5.13;;
60464;SDS011;46314;52.392;9.758;2023-06-10T09:29:15;8.88;;;5.82;;
60464;SDS011;46314;52.392;9.758;2023-06-10T09:31:41;7.32;;;5.50;;
60464;SDS011;46314;52.392;9.758;2023-06-10T09:34:10;10.60;;;5.57;;
60464;SDS011;46314;52.392;9.758;2023-06-10T09:36:38;8.90;;;5.60;;
60464;SDS011;46314;52.392;9.758;2023-06-10T09:39:13;9.15;;;6.20;;
60464;SDS011;46314;52.392;9.758;2023-06-10T09:41:40;8.32;;;5.25;;
60464;SDS011;46314;52.392;9.758;2023-06-10T09:44:10;9.77;;;5.90;;
60464;SDS011;46314;52.392;9.758;2023-06-10T09:46:38;7.85;;;5.28;;
60464;SDS011;46314;52.392;9.758;2023-06-10T09:49:04;6.70;;;5.53;;
60464;SDS011;46314;52.392;9.758;2023-06-10T09:51:31;8.00;;;5.22;;
60464;SDS011;46314;52.392;9.758;2023-06-10T09:53:58;6.40;;;5.53;;
60464;SDS011;46314;52.392;9.758;2023-06-10T09:56:33;6.63;;;5.05;;
60464;SDS011;46314;52.392;9.758;2023-06-10T09:59:00;7.68;;;5.28;;
60464;SDS011;46314;52.392;9.758;2023-06-10T10:01:27;5.80;;;5.20;;
60464;SDS011;46314;52.392;9.758;2023-06-10T10:03:54;7.32;;;5.18;;
60464;SDS011;46314;52.392;9.758;2023-06-10T10:06:20;8.48;;;5.32;;
60464;SDS011;46314;52.392;9.758;2023-06-10T10:08:48;7.03;;;4.88;;
60464;SDS011;46314;52.392;9.758;2023-06-10T10:11:16;8.75;;;5.53;;
60464;SDS011;46314;52.392;9.758;2023-06-10T10:13:46;8.52;;;5.55;;
60464;SDS011;46314;52.392;9.758;2023-06-10T10:16:15;7.30;;;5.20;;
60464;SDS011;46314;52.392;9.758;2023-06-10T10:18:46;6.70;;;5.57;;
60464;SDS011;46314;52.392;9.758;2023-06-10T10:21:17;8.57;;;6.35;;
60464;SDS011;46314;52.392;9.758;2023-06-10T10:23:48;10.45;;;6.25;;
60464;SDS011;46314;52.392;9.758;2023-06-10T10:26:19;7.28;;;5.53;;
60464;SDS011;46314;52.392;9.758;2023-06-10T10:28:51;9.13;;;5.53;;
60464;SDS011;46314;52.392;9.758;2023-06-10T10:31:24;7.32;;;5.38;;
60464;SDS011;46314;52.392;9.758;2023-06-10T10:33:54;7.28;;;6.10;;
60464;SDS011;46314;52.392;9.758;2023-06-10T10:36:24;7.75;;;5.55;;
60464;SDS011;46314;52.392;9.758;2023-06-10T10:38:51;7.55;;;5.55;;
60464;SDS011;46314;52.392;9.758;2023-06-10T10:41:18;8.32;;;5.75;;
60464;SDS011;46314;52.392;9.758;2023-06-10T10:43:46;6.35;;;5.10;;
60464;SDS011;46314;52.392;9.758;2023-06-10T10:46:16;9.88;;;5.72;;
60464;SDS011;46314;52.392;9.758;2023-06-10T10:48:43;6.50;;;5.20;;
60464;SDS011;46314;52.392;9.758;2023-06-10T10:51:10;8.82;;;6.05;;
60464;SDS011;46314;52.392;9.758;2023-06-10T10:53:37;9.40;;;6.18;;
60464;SDS011;46314;52.392;9.758;2023-06-10T10:56:04;8.20;;;5.97;;
60464;SDS011;46314;52.392;9.758;2023-06-10T10:58:32;7.50;;;6.70;;
60464;SDS011;46314;52.392;9.758;2023-06-10T11:00:58;8.38;;;6.03;;
60464;SDS011;46314;52.392;9.758;2023-06-10T11:03:28;10.35;;;6.45;;
60464;SDS011;46314;52.392;9.758;2023-06-10T11:05:56;9.43;;;5.78;;
60464;SDS011;46314;52.392;9.758;2023-06-10T11:11:18;6.68;;;5.97;;
60464;SDS011;46314;52.392;9.758;2023-06-10T11:14:05;8.30;;;5.93;;
60464;SDS011;46314;52.392;9.758;2023-06-10T11:16:38;20.10;;;6.32;;
60464;SDS011;46314;52.392;9.758;2023-06-10T11:19:06;6.50;;;5.93;;
60464;SDS011;46314;52.392;9.758;2023-06-10T11:21:36;8.82;;;6.80;;
60464;SDS011;46314;52.392;9.758;2023-06-10T11:24:23;9.50;;;6.43;;
60464;SDS011;46314;52.392;9.758;2023-06-10T11:26:50;8.07;;;5.88;;
60464;SDS011;46314;52.392;9.758;2023-06-10T11:29:16;7.18;;;6.45;;
60464;SDS011;46314;52.392;9.758;2023-06-10T11:31:43;10.27;;;6.78;;
60464;SDS011;46314;52.392;9.758;2023-06-10T11:34:13;8.02;;;6.22;;
60464;SDS011;46314;52.392;9.758;2023-06-10T11:36:40;9.00;;;6.75;;
60464;SDS011;46314;52.392;9.758;2023-06-10T11:39:08;10.25;;;6.90;;
60464;SDS011;46314;52.392;9.758;2023-06-10T11:41:35;11.70;;;6.70;;
60464;SDS011;46314;52.392;9.758;2023-06-10T11:44:04;9.25;;;7.28;;
60464;SDS011;46314;52.392;9.758;2023-06-10T11:46:33;9.10;;;7.50;;
60464;SDS011;46314;52.392;9.758;2023-06-10T11:49:00;12.02;;;6.88;;
60464;SDS011;46314;52.392;9.758;2023-06-10T11:51:29;9.13;;;7.13;;
60464;SDS011;46314;52.392;9.758;2023-06-10T11:53:58;7.85;;;7.05;;
60464;SDS011;46314;52.392;9.758;2023-06-10T11:56:26;8.35;;;6.80;;
60464;SDS011;46314;52.392;9.758;2023-06-10T11:58:54;8.75;;;6.57;;
60464;SDS011;46314;52.392;9.758;2023-06-10T12:01:21;9.68;;;6.70;;
60464;SDS011;46314;52.392;9.758;2023-06-10T12:03:58;8.38;;;7.55;;
60464;SDS011;46314;52.392;9.758;2023-06-10T12:06:26;8.90;;;8.00;;
60464;SDS011;46314;52.392;9.758;2023-06-10T12:08:54;9.23;;;8.18;;
60464;SDS011;46314;52.392;9.758;2023-06-10T12:11:23;13.18;;;6.97;;
60464;SDS011;46314;52.392;9.758;2023-06-10T12:13:50;9.35;;;7.05;;
60464;SDS011;46314;52.392;9.758;2023-06-10T12:16:17;7.88;;;6.40;;
60464;SDS011;46314;52.392;9.758;2023-06-10T12:18:43;11.30;;;7.45;;
60464;SDS011;46314;52.392;9.758;2023-06-10T12:21:17;8.80;;;7.40;;
60464;SDS011;46314;52.392;9.758;2023-06-10T12:24:02;8.27;;;7.47;;
60464;SDS011;46314;52.392;9.758;2023-06-10T12:26:36;9.65;;;7.53;;
60464;SDS011;46314;52.392;9.758;2023-06-10T12:29:12;7.97;;;7.15;;
60464;SDS011;46314;52.392;9.758;2023-06-10T12:31:57;7.80;;;6.85;;
60464;SDS011;46314;52.392;9.758;2023-06-10T12:34:29;10.57;;;7.55;;
60464;SDS011;46314;52.392;9.758;2023-06-10T12:36:56;10.77;;;7.30;;
60464;SDS011;46314;52.392;9.758;2023-06-10T12:39:24;7.85;;;7.05;;
60464;SDS011;46314;52.392;9.758;2023-06-10T12:41:51;11.32;;;7.82;;
60464;SDS011;46314;52.392;9.758;2023-06-10T12:44:19;7.80;;;7.05;;
60464;SDS011;46314;52.392;9.758;2023-06-10T12:46:54;10.45;;;7.78;;
60464;SDS011;46314;52.392;9.758;2023-06-10T12:49:21;11.07;;;7.85;;
60464;SDS011;46314;52.392;9.758;2023-06-10T12:51:47;8.60;;;7.82;;
60464;SDS011;46314;52.392;9.758;2023-06-10T12:54:14;8.23;;;7.43;;
60464;SDS011;46314;52.392;9.758;2023-06-10T12:56:42;12.30;;;7.55;;
60464;SDS011;46314;52.392;9.758;2023-06-10T12:59:08;9.32;;;6.95;;
60464;SDS011;46314;52.392;9.758;2023-06-10T13:01:35;10.93;;;7.38;;
60464;SDS011;46314;52.392;9.758;2023-06-10T13:04:01;8.48;;;7.05;;
60464;SDS011;46314;52.392;9.758;2023-06-10T13:06:28;8.35;;;7.55;;
60464;SDS011;46314;52.392;9.758;2023-06-10T13:08:54;10.98;;;7.25;;
60464;SDS011;46314;52.392;9.758;2023-06-10T13:11:20;10.18;;;7.18;;
60464;SDS011;46314;52.392;9.758;2023-06-10T13:13:48;7.80;;;7.10;;
60464;SDS011;46314;52.392;9.758;2023-06-10T13:16:15;8.50;;;7.55;;
60464;SDS011;46314;52.392;9.758;2023-06-10T13:18:41;9.25;;;8.35;;
60464;SDS011;46314;52.392;9.758;2023-06-10T13:21:07;11.00;;;7.90;;
60464;SDS011;46314;52.392;9.758;2023-06-10T13:23:34;8.15;;;7.35;;
60464;SDS011;46314;52.392;9.758;2023-06-10T13:26:00;9.05;;;8.10;;
60464;SDS011;46314;52.392;9.758;2023-06-10T13:28:27;9.02;;;8.13;;
60464;SDS011;46314;52.392;9.758;2023-06-10T13:30:54;7.95;;;7.15;;
60464;SDS011;46314;52.392;9.758;2023-06-10T13:33:21;8.90;;;8.02;;
60464;SDS011;46314;52.392;9.758;2023-06-10T13:35:47;8.13;;;7.38;;
60464;SDS011;46314;52.392;9.758;2023-06-10T13:38:14;8.65;;;7.40;;
60464;SDS011;46314;52.392;9.758;2023-06-10T13:40:40;8.68;;;6.60;;
60464;SDS011;46314;52.392;9.758;2023-06-10T13:43:07;9.98;;;6.93;;
60464;SDS011;46314;52.392;9.758;2023-06-10T13:45:33;7.38;;;6.68;;
60464;SDS011;46314;52.392;9.758;2023-06-10T13:48:01;8.98;;;7.07;;
60464;SDS011;46314;52.392;9.758;2023-06-10T13:50:28;8.48;;;6.75;;
60464;SDS011;46314;52.392;9.758;2023-06-10T13:52:54;10.45;;;7.50;;
60464;SDS011;46314;52.392;9.758;2023-06-10T13:55:20;11.65;;;7.63;;
60464;SDS011;46314;52.392;9.758;2023-06-10T13:57:47;8.88;;;7.55;;
60464;SDS011;46314;52.392;9.758;2023-06-10T14:00:14;8.55;;;7.72;;
60464;SDS011;46314;52.392;9.758;2023-06-10T14:02:41;7.90;;;7.20;;
60464;SDS011;46314;52.392;9.758;2023-06-10T14:05:09;8.95;;;7.47;;
60464;SDS011;46314;52.392;9.758;2023-06-10T14:07:36;9.10;;;7.38;;
60464;SDS011;46314;52.392;9.758;2023-06-10T14:10:02;8.63;;;6.60;;
60464;SDS011;46314;52.392;9.758;2023-06-10T14:12:29;7.93;;;7.13;;
60464;SDS011;46314;52.392;9.758;2023-06-10T14:14:56;9.75;;;8.00;;
60464;SDS011;46314;52.392;9.758;2023-06-10T14:17:22;9.27;;;7.50;;
60464;SDS011;46314;52.392;9.758;2023-06-10T14:19:49;8.18;;;6.68;;
60464;SDS011;46314;52.392;9.758;2023-06-10T14:22:16;8.57;;;7.45;;
60464;SDS011;46314;52.392;9.758;2023-06-10T14:24:43;8.73;;;7.95;;
60464;SDS011;46314;52.392;9.758;2023-06-10T14:27:09;7.85;;;7.00;;
60464;SDS011;46314;52.392;9.758;2023-06-10T14:29:36;8.95;;;6.53;;
60464;SDS011;46314;52.392;9.758;2023-06-10T14:32:02;7.57;;;6.82;;
60464;SDS011;46314;52.392;9.758;2023-06-10T14:34:34;8.77;;;7.35;;
60464;SDS011;46314;52.392;9.758;2023-06-10T14:37:00;8.73;;;6.30;;
60464;SDS011;46314;52.392;9.758;2023-06-10T14:39:28;8.65;;;6.93;;
60464;SDS011;46314;52.392;9.758;2023-06-10T14:41:55;8.90;;;7.00;;
60464;SDS011;46314;52.392;9.758;2023-06-10T14:44:21;9.23;;;7.00;;
60464;SDS011;46314;52.392;9.758;2023-06-10T14:46:47;10.93;;;6.75;;